Time;durP1;ratioP1;P1;durP2;ratioP2;P2;SDS_P1;SDS_P2;PMS_P1;PMS_P2;Temp;Humidity;BMP_temperature;BMP_pressure;BME280_temperature;BME280_humidity;BME280_pressure;Samples;Min_cycle;Max_cycle;Signal;HPM_P1;HPM_P2
2022/06/07 00:01:13;;;;;;;17.00;12.98;;;;;;;;;;6203224;23;20059;-67
2022/06/07 00:03:40;;;;;;;18.27;13.68;;;;;;;;;;6204638;23;20466;-66
2022/06/07 00:06:07;;;;;;;18.75;13.50;;;;;;;;;;6203777;23;20462;-67
2022/06/07 00:08:34;;;;;;;18.75;14.82;;;;;;;;;;6202782;23;20420;-66
2022/06/07 00:11:00;;;;;;;19.90;14.32;;;;;;;;;;6210384;23;20052;-67
2022/06/07 00:13:26;;;;;;;25.20;16.45;;;;;;;;;;6201332;23;20110;-67
2022/06/07 00:15:53;;;;;;;24.08;17.13;;;;;;;;;;6210478;23;20522;-67
2022/06/07 00:18:20;;;;;;;22.08;16.35;;;;;;;;;;6195318;23;20115;-67
2022/06/07 00:20:46;;;;;;;24.73;17.92;;;;;;;;;;6204059;23;20357;-67
2022/06/07 00:23:15;;;;;;;22.95;16.90;;;;;;;;;;6209810;23;20056;-68
2022/06/07 00:25:43;;;;;;;25.52;17.52;;;;;;;;;;6203161;23;20485;-68
2022/06/07 00:28:10;;;;;;;24.58;17.05;;;;;;;;;;6209283;23;20020;-68
2022/06/07 00:30:36;;;;;;;25.65;17.90;;;;;;;;;;6201452;23;20027;-68
2022/06/07 00:33:03;;;;;;;24.48;17.25;;;;;;;;;;6201554;23;20025;-67
2022/06/07 00:35:29;;;;;;;24.88;17.45;;;;;;;;;;6197985;23;20104;-68
2022/06/07 00:37:56;;;;;;;24.15;17.05;;;;;;;;;;6210080;23;20393;-67
2022/06/07 00:40:22;;;;;;;26.20;18.63;;;;;;;;;;6208270;23;20060;-66
2022/06/07 00:42:48;;;;;;;22.88;18.15;;;;;;;;;;6205847;23;20413;-67
2022/06/07 00:45:16;;;;;;;27.02;18.63;;;;;;;;;;6205086;23;20032;-67
2022/06/07 00:47:43;;;;;;;25.20;18.17;;;;;;;;;;6195760;22;20104;-67
2022/06/07 00:50:28;;;;;;;26.90;19.25;;;;;;;;;;6209309;23;20155;-68
2022/06/07 00:52:55;;;;;;;28.85;20.58;;;;;;;;;;6200750;23;20496;-67
2022/06/07 00:55:21;;;;;;;29.92;20.25;;;;;;;;;;6210016;23;20035;-67
2022/06/07 00:57:47;;;;;;;30.08;20.10;;;;;;;;;;6202636;23;20399;-67
2022/06/07 01:00:18;;;;;;;28.77;19.80;;;;;;;;;;6204167;23;20056;-67
2022/06/07 01:02:44;;;;;;;33.28;20.15;;;;;;;;;;6203881;23;20103;-68
2022/06/07 01:05:11;;;;;;;31.27;19.80;;;;;;;;;;6200490;23;20074;-67
2022/06/07 01:13:07;;;;;;;30.83;20.15;;;;;;;;;;6207287;23;20048;-67
2022/06/07 01:15:33;;;;;;;29.98;20.85;;;;;;;;;;6193266;23;20825;-68
2022/06/07 01:18:00;;;;;;;27.73;19.60;;;;;;;;;;6208869;23;20405;-67
2022/06/07 01:20:28;;;;;;;34.78;21.85;;;;;;;;;;6200774;22;20407;-67
2022/06/07 01:22:55;;;;;;;32.35;20.30;;;;;;;;;;6209445;23;20070;-67
2022/06/07 01:25:21;;;;;;;28.23;20.08;;;;;;;;;;6209795;23;20414;-68
2022/06/07 01:27:48;;;;;;;29.98;19.25;;;;;;;;;;6195785;23;20410;-67
2022/06/07 01:30:14;;;;;;;30.85;20.83;;;;;;;;;;6203394;23;20469;-68
2022/06/07 01:32:41;;;;;;;27.48;19.10;;;;;;;;;;6203208;23;20016;-67
2022/06/07 01:35:07;;;;;;;30.15;19.80;;;;;;;;;;6211544;23;20040;-67
2022/06/07 01:37:34;;;;;;;31.92;20.70;;;;;;;;;;6204704;23;20020;-68
2022/06/07 01:42:45;;;;;;;37.03;20.77;;;;;;;;;;6205610;23;20024;-67
2022/06/07 01:45:11;;;;;;;35.00;19.77;;;;;;;;;;6197360;22;20103;-68
2022/06/07 01:47:38;;;;;;;32.78;22.00;;;;;;;;;;6211841;23;20489;-67
2022/06/07 01:50:05;;;;;;;36.55;22.67;;;;;;;;;;6203621;23;20099;-67
2022/06/07 01:52:33;;;;;;;32.72;22.83;;;;;;;;;;6212004;23;20086;-67
2022/06/07 01:55:00;;;;;;;38.03;22.83;;;;;;;;;;6202047;23;20055;-67
2022/06/07 01:57:27;;;;;;;33.95;22.08;;;;;;;;;;6202336;23;20031;-68
2022/06/07 01:59:55;;;;;;;39.33;25.60;;;;;;;;;;6184654;23;20024;-67
2022/06/07 02:02:27;;;;;;;34.40;23.85;;;;;;;;;;6200109;23;20106;-67
2022/06/07 02:04:54;;;;;;;34.40;23.88;;;;;;;;;;6211485;23;20020;-67
2022/06/07 02:07:23;;;;;;;34.25;23.88;;;;;;;;;;6200942;23;20020;-68
2022/06/07 02:09:50;;;;;;;34.08;24.13;;;;;;;;;;6205836;23;20414;-68
2022/06/07 02:12:16;;;;;;;35.22;24.52;;;;;;;;;;6196667;23;20103;-67
2022/06/07 02:14:43;;;;;;;34.85;24.08;;;;;;;;;;6211235;23;20127;-67
2022/06/07 02:17:09;;;;;;;36.42;24.33;;;;;;;;;;6211398;23;20035;-67
2022/06/07 02:19:35;;;;;;;38.55;22.73;;;;;;;;;;6203531;23;20107;-67
2022/06/07 02:22:03;;;;;;;38.03;23.17;;;;;;;;;;6211779;23;20048;-67
2022/06/07 02:24:29;;;;;;;32.40;22.38;;;;;;;;;;6198036;23;20063;-67
2022/06/07 02:27:07;;;;;;;36.13;24.15;;;;;;;;;;6204930;23;20021;-67
2022/06/07 02:29:36;;;;;;;31.08;22.58;;;;;;;;;;6203906;23;20104;-68
2022/06/07 02:32:05;;;;;;;32.13;22.67;;;;;;;;;;6211821;23;20024;-67
2022/06/07 02:34:34;;;;;;;31.75;21.80;;;;;;;;;;6203860;23;20458;-66
2022/06/07 02:37:01;;;;;;;33.25;21.17;;;;;;;;;;6207767;23;20056;-66
2022/06/07 02:39:28;;;;;;;35.17;22.65;;;;;;;;;;6202477;23;20103;-67
2022/06/07 02:41:55;;;;;;;31.10;21.58;;;;;;;;;;6202686;23;20107;-67
2022/06/07 02:44:21;;;;;;;32.92;21.42;;;;;;;;;;6210401;23;20112;-68
2022/06/07 02:46:48;;;;;;;36.38;23.00;;;;;;;;;;6203278;22;20103;-67
2022/06/07 02:49:14;;;;;;;29.35;20.75;;;;;;;;;;6211293;23;20402;-67
2022/06/07 02:51:40;;;;;;;33.42;22.15;;;;;;;;;;6198227;23;20345;-67
2022/06/07 02:54:07;;;;;;;32.67;22.52;;;;;;;;;;6204649;23;20100;-67
2022/06/07 02:56:33;;;;;;;36.40;22.02;;;;;;;;;;6211118;23;20491;-67
2022/06/07 02:59:00;;;;;;;34.65;22.27;;;;;;;;;;6202087;23;20027;-67
2022/06/07 03:01:28;;;;;;;32.05;22.75;;;;;;;;;;6210681;23;20397;-67
2022/06/07 03:03:57;;;;;;;;;;;;;;;;;;6202796;23;20361;-66
2022/06/07 03:06:23;;;;;;;29.80;21.30;;;;;;;;;;6204670;23;20337;-67
2022/06/07 03:08:50;;;;;;;35.08;23.38;;;;;;;;;;6196562;22;20052;-66
2022/06/07 03:11:17;;;;;;;38.90;21.95;;;;;;;;;;6210568;23;20627;-66
2022/06/07 03:13:46;;;;;;;35.17;23.23;;;;;;;;;;6210559;23;20031;-68
2022/06/07 03:16:14;;;;;;;33.40;23.40;;;;;;;;;;6201753;23;20024;-67
2022/06/07 03:18:41;;;;;;;34.47;23.73;;;;;;;;;;6210798;23;20047;-68
2022/06/07 03:21:08;;;;;;;33.85;22.23;;;;;;;;;;6193373;23;20341;-67
2022/06/07 03:23:34;;;;;;;37.33;23.05;;;;;;;;;;6207710;23;20051;-67
2022/06/07 03:26:04;;;;;;;39.63;23.30;;;;;;;;;;6202059;23;20099;-67
2022/06/07 03:28:31;;;;;;;35.13;24.13;;;;;;;;;;6210121;23;20103;-67
2022/06/07 03:31:04;;;;;;;32.88;22.65;;;;;;;;;;6210283;23;20129;-67
2022/06/07 03:33:33;;;;;;;36.83;24.00;;;;;;;;;;6199571;23;20120;-67
2022/06/07 03:36:12;;;;;;;35.20;23.85;;;;;;;;;;6204627;23;20051;-67
2022/06/07 03:38:39;;;;;;;34.80;23.52;;;;;;;;;;6202208;22;20020;-67
2022/06/07 03:41:05;;;;;;;38.92;24.83;;;;;;;;;;6210695;23;20108;-67
2022/06/07 03:43:32;;;;;;;38.00;24.88;;;;;;;;;;6203679;22;20494;-67
2022/06/07 03:46:08;;;;;;;35.85;25.73;;;;;;;;;;6210758;23;20512;-67
2022/06/07 03:48:35;;;;;;;38.58;24.10;;;;;;;;;;6194747;23;20027;-67
2022/06/07 03:51:01;;;;;;;38.85;24.98;;;;;;;;;;6208965;23;20099;-67
2022/06/07 03:53:28;;;;;;;35.53;24.15;;;;;;;;;;6210315;23;20063;-67
2022/06/07 03:55:54;;;;;;;35.67;25.50;;;;;;;;;;6202785;22;20608;-66
2022/06/07 03:58:20;;;;;;;32.40;24.00;;;;;;;;;;6210232;23;20458;-66
2022/06/07 04:00:47;;;;;;;37.55;24.25;;;;;;;;;;6196811;23;20103;-68
2022/06/07 04:03:13;;;;;;;38.70;23.80;;;;;;;;;;6204216;23;20056;-66
2022/06/07 04:05:40;;;;;;;35.00;24.50;;;;;;;;;;6202898;22;20488;-67
2022/06/07 04:08:12;;;;;;;33.03;24.50;;;;;;;;;;6210142;23;20472;-67
2022/06/07 04:10:45;;;;;;;37.70;24.60;;;;;;;;;;6210421;23;20027;-67
2022/06/07 04:13:12;;;;;;;37.58;24.70;;;;;;;;;;6202252;23;20115;-67
2022/06/07 04:15:38;;;;;;;31.33;22.30;;;;;;;;;;6204244;23;20497;-67
2022/06/07 04:18:05;;;;;;;40.05;24.50;;;;;;;;;;6195940;22;20024;-67
2022/06/07 04:20:31;;;;;;;35.42;23.88;;;;;;;;;;6210847;23;20028;-68
2022/06/07 04:22:57;;;;;;;39.83;23.65;;;;;;;;;;6202028;23;20111;-67
2022/06/07 04:25:24;;;;;;;32.38;22.75;;;;;;;;;;6210371;23;20095;-67
2022/06/07 04:27:51;;;;;;;33.30;23.40;;;;;;;;;;6210782;23;20035;-67
2022/06/07 04:30:17;;;;;;;33.53;22.88;;;;;;;;;;6194855;22;20099;-68
2022/06/07 04:32:47;;;;;;;33.15;23.13;;;;;;;;;;6206159;23;20104;-67
2022/06/07 04:35:17;;;;;;;33.85;22.90;;;;;;;;;;6202962;22;20131;-67
2022/06/07 04:37:47;;;;;;;31.45;22.60;;;;;;;;;;6210943;23;20036;-67
2022/06/07 04:40:14;;;;;;;35.22;23.88;;;;;;;;;;6203440;23;20422;-67
2022/06/07 04:42:41;;;;;;;31.45;22.52;;;;;;;;;;6206096;23;20024;-67
2022/06/07 04:45:09;;;;;;;30.52;22.23;;;;;;;;;;6202646;23;20458;-68
2022/06/07 04:47:36;;;;;;;32.38;21.58;;;;;;;;;;6202863;23;20063;-67
2022/06/07 04:50:04;;;;;;;31.23;22.60;;;;;;;;;;6210548;23;20111;-66
2022/06/07 04:52:31;;;;;;;31.40;21.23;;;;;;;;;;6202364;23;20116;-66
2022/06/07 04:54:57;;;;;;;33.17;22.08;;;;;;;;;;6210195;23;20518;-67
2022/06/07 04:57:24;;;;;;;32.38;21.48;;;;;;;;;;6196612;23;20533;-67
2022/06/07 04:59:50;;;;;;;29.25;22.45;;;;;;;;;;6203689;23;20662;-66
2022/06/07 05:02:17;;;;;;;32.70;22.63;;;;;;;;;;6206122;23;20115;-66
2022/06/07 05:04:43;;;;;;;31.73;21.48;;;;;;;;;;6206601;23;20078;-67
2022/06/07 05:07:09;;;;;;;28.90;20.73;;;;;;;;;;6210351;23;20394;-67
2022/06/07 05:09:36;;;;;;;27.13;20.63;;;;;;;;;;6205347;23;20115;-67
2022/06/07 05:12:03;;;;;;;25.92;20.40;;;;;;;;;;6203611;23;20035;-66
2022/06/07 05:14:29;;;;;;;29.05;20.40;;;;;;;;;;6199596;23;20056;-67
2022/06/07 05:16:57;;;;;;;27.40;19.77;;;;;;;;;;6212174;23;20048;-67
2022/06/07 05:19:24;;;;;;;;;;;;;;;;;;6204746;22;20032;-66
2022/06/07 05:21:50;;;;;;;26.20;17.83;;;;;;;;;;6211330;23;19916;-66
2022/06/07 05:24:17;;;;;;;25.30;20.23;;;;;;;;;;6205678;23;20051;-68
2022/06/07 05:26:46;;;;;;;30.80;20.17;;;;;;;;;;6197559;23;20027;-67
2022/06/07 05:29:32;;;;;;;27.95;19.10;;;;;;;;;;6210548;23;20107;-67
2022/06/07 05:31:58;;;;;;;27.52;18.60;;;;;;;;;;6204402;23;20051;-67
2022/06/07 05:34:25;;;;;;;29.52;18.58;;;;;;;;;;6211763;23;20020;-67
2022/06/07 05:36:51;;;;;;;34.38;18.60;;;;;;;;;;6203839;23;20099;-67
2022/06/07 05:39:22;;;;;;;26.67;19.27;;;;;;;;;;6204345;23;20017;-67
2022/06/07 05:41:48;;;;;;;25.52;19.02;;;;;;;;;;6207375;23;20103;-67
2022/06/07 05:44:15;;;;;;;25.60;18.42;;;;;;;;;;6203630;23;20100;-67
2022/06/07 05:46:41;;;;;;;23.95;19.05;;;;;;;;;;6212206;23;20060;-66
2022/06/07 05:49:08;;;;;;;29.42;17.45;;;;;;;;;;6204067;23;20025;-66
2022/06/07 05:51:35;;;;;;;21.95;17.95;;;;;;;;;;6182969;23;20096;-66
2022/06/07 05:54:01;;;;;;;24.10;17.42;;;;;;;;;;6195028;23;20111;-66
2022/06/07 05:56:28;;;;;;;23.30;18.42;;;;;;;;;;6210617;23;20027;-66
2022/06/07 05:58:54;;;;;;;25.70;17.30;;;;;;;;;;6211639;23;20514;-67
2022/06/07 06:01:20;;;;;;;23.92;18.23;;;;;;;;;;6203409;23;20023;-67
2022/06/07 06:03:47;;;;;;;30.00;18.55;;;;;;;;;;6211512;23;20446;-67
2022/06/07 06:06:14;;;;;;;28.65;16.95;;;;;;;;;;6197930;23;20112;-66
2022/06/07 06:11:26;;;;;;;25.02;17.92;;;;;;;;;;6200897;23;20570;-68
2022/06/07 06:13:53;;;;;;;28.23;19.13;;;;;;;;;;6211726;23;20277;-67
2022/06/07 06:16:20;;;;;;;23.23;16.77;;;;;;;;;;6204127;23;20023;-68
2022/06/07 06:18:48;;;;;;;25.60;17.70;;;;;;;;;;6209965;23;20024;-66
2022/06/07 06:21:15;;;;;;;27.50;17.40;;;;;;;;;;6205311;23;20420;-67
2022/06/07 06:23:41;;;;;;;23.65;17.40;;;;;;;;;;6197216;23;20422;-67
2022/06/07 06:26:09;;;;;;;22.23;15.77;;;;;;;;;;6210951;23;20024;-66
2022/06/07 06:28:36;;;;;;;26.98;16.50;;;;;;;;;;6203474;23;20079;-66
2022/06/07 06:31:05;;;;;;;24.25;16.85;;;;;;;;;;6211905;23;20104;-67
2022/06/07 06:33:34;;;;;;;28.27;18.25;;;;;;;;;;6201616;23;20024;-67
2022/06/07 06:36:01;;;;;;;25.25;17.67;;;;;;;;;;6202160;23;20099;-67
2022/06/07 06:38:27;;;;;;;23.48;17.50;;;;;;;;;;6210416;23;20076;-67
2022/06/07 06:40:54;;;;;;;26.52;18.25;;;;;;;;;;6203424;23;20099;-68
2022/06/07 06:43:20;;;;;;;24.55;18.05;;;;;;;;;;6210592;23;20021;-68
2022/06/07 06:45:46;;;;;;;21.70;17.13;;;;;;;;;;6204016;22;20350;-68
2022/06/07 06:48:14;;;;;;;28.35;18.33;;;;;;;;;;6205014;23;20100;-67
2022/06/07 06:50:40;;;;;;;26.65;18.05;;;;;;;;;;6198367;23;20349;-67
2022/06/07 06:53:06;;;;;;;24.42;18.85;;;;;;;;;;6209964;23;20056;-68
2022/06/07 06:55:33;;;;;;;25.85;17.65;;;;;;;;;;6211332;23;20104;-67
2022/06/07 06:58:00;;;;;;;26.48;18.08;;;;;;;;;;6202532;23;20048;-68
2022/06/07 07:00:26;;;;;;;26.30;18.98;;;;;;;;;;6211026;23;20445;-68
2022/06/07 07:02:53;;;;;;;23.25;18.80;;;;;;;;;;6195634;23;20362;-67
2022/06/07 07:05:20;;;;;;;25.17;18.40;;;;;;;;;;6206160;23;20096;-68
2022/06/07 07:07:47;;;;;;;28.27;18.85;;;;;;;;;;6203188;23;20118;-68
2022/06/07 07:10:13;;;;;;;26.77;19.42;;;;;;;;;;6209941;23;20017;-67
2022/06/07 07:12:39;;;;;;;29.52;18.40;;;;;;;;;;6211216;23;20097;-68
2022/06/07 07:15:07;;;;;;;24.10;18.17;;;;;;;;;;6199873;23;20016;-69
2022/06/07 07:17:34;;;;;;;27.80;18.30;;;;;;;;;;6202394;23;20092;-67
2022/06/07 07:20:00;;;;;;;25.00;17.70;;;;;;;;;;6201873;23;20058;-68
2022/06/07 07:22:26;;;;;;;28.60;20.77;;;;;;;;;;6210550;23;20399;-68
2022/06/07 07:24:53;;;;;;;23.85;18.88;;;;;;;;;;6210934;23;20016;-67
2022/06/07 07:27:19;;;;;;;26.25;19.50;;;;;;;;;;6202713;23;20603;-68
2022/06/07 07:29:46;;;;;;;26.52;18.70;;;;;;;;;;6208196;23;20096;-69
2022/06/07 07:32:13;;;;;;;24.90;20.48;;;;;;;;;;6202290;22;20052;-68
2022/06/07 07:34:39;;;;;;;25.50;18.80;;;;;;;;;;6210748;23;20498;-69
2022/06/07 07:37:05;;;;;;;26.85;19.45;;;;;;;;;;6202061;22;20112;-69
2022/06/07 07:39:31;;;;;;;24.40;18.48;;;;;;;;;;6209851;23;20021;-67
2022/06/07 07:41:58;;;;;;;25.00;19.45;;;;;;;;;;6208629;23;20064;-67
2022/06/07 07:44:24;;;;;;;23.80;17.83;;;;;;;;;;6205050;23;20056;-68
2022/06/07 07:46:51;;;;;;;25.90;18.27;;;;;;;;;;6210502;23;20103;-68
2022/06/07 07:49:20;;;;;;;27.13;19.70;;;;;;;;;;6202641;23;20024;-67
2022/06/07 07:51:46;;;;;;;;;;;;;;;;;;6201796;23;20103;-67
2022/06/07 07:54:14;;;;;;;24.35;17.92;;;;;;;;;;6199050;23;19959;-68
2022/06/07 07:56:40;;;;;;;24.20;19.20;;;;;;;;;;6210821;23;20051;-68
2022/06/07 07:59:07;;;;;;;22.83;17.58;;;;;;;;;;6210408;23;20354;-68
2022/06/07 08:01:34;;;;;;;22.58;17.25;;;;;;;;;;6202193;23;20091;-68
2022/06/07 08:04:01;;;;;;;23.05;16.75;;;;;;;;;;6206239;23;20052;-68
2022/06/07 08:06:29;;;;;;;23.50;17.33;;;;;;;;;;6194991;23;20039;-68
2022/06/07 08:08:57;;;;;;;22.67;16.97;;;;;;;;;;6209935;23;20024;-68
2022/06/07 08:11:24;;;;;;;23.92;16.77;;;;;;;;;;6203452;23;20031;-68
2022/06/07 08:13:51;;;;;;;21.80;16.70;;;;;;;;;;6210517;23;20096;-68
2022/06/07 08:16:17;;;;;;;21.08;16.58;;;;;;;;;;6204760;23;20020;-68
2022/06/07 08:18:44;;;;;;;21.42;16.73;;;;;;;;;;6204692;23;20466;-68
2022/06/07 08:21:21;;;;;;;21.67;15.50;;;;;;;;;;6202845;23;20107;-67
2022/06/07 08:23:50;;;;;;;21.10;16.33;;;;;;;;;;6200046;23;20521;-67
2022/06/07 08:26:17;;;;;;;20.95;15.82;;;;;;;;;;6209197;23;20403;-67
2022/06/07 08:28:44;;;;;;;20.73;15.50;;;;;;;;;;6201624;23;20099;-67
2022/06/07 08:31:12;;;;;;;18.40;15.63;;;;;;;;;;6205934;23;20021;-66
2022/06/07 08:39:09;;;;;;;24.10;15.23;;;;;;;;;;6201375;23;20056;-67
2022/06/07 08:41:55;;;;;;;21.35;16.48;;;;;;;;;;6208450;23;20029;-68
2022/06/07 08:44:42;;;;;;;23.23;16.77;;;;;;;;;;6208556;23;20024;-68
2022/06/07 08:47:16;;;;;;;23.63;16.27;;;;;;;;;;6196378;23;20103;-66
2022/06/07 08:49:43;;;;;;;19.95;15.48;;;;;;;;;;6207372;23;20822;-67
2022/06/07 08:52:15;;;;;;;20.83;17.08;;;;;;;;;;6200293;22;20035;-68
2022/06/07 08:54:42;;;;;;;21.10;16.33;;;;;;;;;;6208976;23;20059;-68
2022/06/07 08:57:15;;;;;;;22.02;17.25;;;;;;;;;;6202083;22;20063;-68
2022/06/07 08:59:46;;;;;;;21.20;17.40;;;;;;;;;;6203779;23;20091;-68
2022/06/07 09:02:12;;;;;;;26.40;17.63;;;;;;;;;;6195052;23;20021;-68
2022/06/07 09:04:40;;;;;;;22.42;18.92;;;;;;;;;;6208665;23;20025;-67
2022/06/07 09:07:16;;;;;;;25.58;20.20;;;;;;;;;;6208408;23;20450;-67
2022/06/07 09:12:30;;;;;;;28.33;20.98;;;;;;;;;;6207920;23;20067;-68
2022/06/07 09:14:59;;;;;;;25.23;20.70;;;;;;;;;;6192441;23;20028;-68
2022/06/07 09:17:37;;;;;;;25.38;20.08;;;;;;;;;;6203805;23;20135;-68
2022/06/07 09:20:06;;;;;;;23.13;18.98;;;;;;;;;;6154509;23;1125289;-67
2022/06/07 09:22:54;;;;;;;26.13;18.92;;;;;;;;;;6210237;23;20017;-69
2022/06/07 09:25:23;;;;;;;21.90;17.83;;;;;;;;;;6202173;23;20051;-66
2022/06/07 09:27:50;;;;;;;25.90;19.77;;;;;;;;;;6204576;23;20017;-68
2022/06/07 09:30:16;;;;;;;24.77;19.13;;;;;;;;;;6198566;23;20100;-67
2022/06/07 09:32:45;;;;;;;24.73;21.45;;;;;;;;;;6209329;23;20100;-67
2022/06/07 09:35:18;;;;;;;28.40;19.88;;;;;;;;;;6210000;23;20099;-68
2022/06/07 09:37:47;;;;;;;28.63;20.58;;;;;;;;;;6201933;23;20056;-67
2022/06/07 09:40:22;;;;;;;26.60;19.98;;;;;;;;;;6209941;23;20035;-67
2022/06/07 09:42:53;;;;;;;26.17;20.50;;;;;;;;;;6195323;23;20111;-68
2022/06/07 09:45:23;;;;;;;26.98;20.55;;;;;;;;;;6205357;23;20481;-68
2022/06/07 09:47:49;;;;;;;23.15;19.40;;;;;;;;;;6201806;23;20063;-67
2022/06/07 09:50:21;;;;;;;22.20;18.25;;;;;;;;;;6209460;23;20027;-67
2022/06/07 09:52:49;;;;;;;22.98;20.48;;;;;;;;;;6210117;23;20108;-67
2022/06/07 09:55:16;;;;;;;24.15;17.67;;;;;;;;;;6199986;23;20099;-67
2022/06/07 09:57:49;;;;;;;22.70;18.52;;;;;;;;;;6204738;23;20104;-67
2022/06/07 10:00:19;;;;;;;23.23;17.90;;;;;;;;;;6202660;23;20104;-68
2022/06/07 10:02:45;;;;;;;21.45;17.55;;;;;;;;;;6211849;23;20021;-67
2022/06/07 10:05:22;;;;;;;23.30;17.15;;;;;;;;;;6203896;22;20111;-67
2022/06/07 10:08:09;;;;;;;29.58;17.67;;;;;;;;;;6211559;23;20056;-67
2022/06/07 10:10:47;;;;;;;22.40;16.98;;;;;;;;;;6178168;23;20080;-67
2022/06/07 10:13:14;;;;;;;;;;;;;;;;;;6207416;23;20103;-68
2022/06/07 10:15:47;;;;;;;21.70;16.27;;;;;;;;;;6211379;23;20006;-67
2022/06/07 10:18:16;;;;;;;20.75;16.35;;;;;;;;;;6203553;23;20032;-68
2022/06/07 10:21:01;;;;;;;24.70;16.35;;;;;;;;;;6211368;23;20059;-68
2022/06/07 10:23:30;;;;;;;23.90;18.98;;;;;;;;;;6201431;23;20023;-67
2022/06/07 10:26:04;;;;;;;21.98;18.30;;;;;;;;;;6211348;23;20127;-67
2022/06/07 10:28:35;;;;;;;22.85;18.95;;;;;;;;;;6201392;23;20052;-68
2022/06/07 10:31:05;;;;;;;25.38;18.40;;;;;;;;;;6211684;23;20091;-68
2022/06/07 10:33:33;;;;;;;19.25;16.30;;;;;;;;;;6200340;22;20041;-68
2022/06/07 10:36:04;;;;;;;22.27;16.48;;;;;;;;;;6204387;23;20027;-68
2022/06/07 10:38:30;;;;;;;22.33;16.25;;;;;;;;;;6210565;23;20466;-68
2022/06/07 10:40:56;;;;;;;22.65;16.98;;;;;;;;;;6205171;23;20025;-68
2022/06/07 10:43:32;;;;;;;20.73;16.75;;;;;;;;;;6211171;23;20414;-68
2022/06/07 10:46:00;;;;;;;18.42;16.02;;;;;;;;;;6204113;23;20017;-67
2022/06/07 10:48:41;;;;;;;20.50;16.17;;;;;;;;;;6205636;23;20024;-69
2022/06/07 10:54:02;;;;;;;21.15;16.45;;;;;;;;;;6211307;23;20055;-68
2022/06/07 10:56:31;;;;;;;19.92;16.10;;;;;;;;;;6204398;23;20099;-68
2022/06/07 10:58:59;;;;;;;19.48;17.15;;;;;;;;;;6211033;23;20035;-68
2022/06/07 11:01:40;;;;;;;24.58;17.02;;;;;;;;;;6207988;23;20029;-68
2022/06/07 11:09:19;;;;;;;23.17;18.52;;;;;;;;;;6203819;23;20021;-69
2022/06/07 11:10:00;;;;;;;19.83;16.30;;;;;;;;;;6211262;23;20055;-66
2022/06/07 11:12:29;;;;;;;19.63;16.17;;;;;;;;;;6212395;23;20131;-68
2022/06/07 11:15:04;;;;;;;18.60;14.43;;;;;;;;;;6204858;23;20143;-69
2022/06/07 11:17:45;;;;;;;18.90;15.65;;;;;;;;;;6204057;23;20076;-67
2022/06/07 11:20:15;;;;;;;21.20;15.00;;;;;;;;;;6204762;23;20024;-68
2022/06/07 11:22:56;;;;;;;17.50;15.50;;;;;;;;;;6212169;23;20031;-68
2022/06/07 11:25:26;;;;;;;21.83;17.33;;;;;;;;;;6205042;23;20111;-68
2022/06/07 11:27:53;;;;;;;22.20;17.42;;;;;;;;;;6212471;23;20035;-69
2022/06/07 11:30:46;;;;;;;21.83;17.75;;;;;;;;;;6194795;23;20111;-67
2022/06/07 11:33:29;;;;;;;22.88;18.60;;;;;;;;;;6209688;23;20461;-67
2022/06/07 11:36:20;;;;;;;25.23;18.55;;;;;;;;;;6201948;23;20024;-68
2022/06/07 11:38:53;;;;;;;22.17;18.83;;;;;;;;;;6210391;23;20044;-68
2022/06/07 11:41:38;;;;;;;22.08;19.15;;;;;;;;;;6203926;23;20059;-68
2022/06/07 11:44:07;;;;;;;21.33;17.63;;;;;;;;;;6205232;23;20076;-68
2022/06/07 11:46:34;;;;;;;25.35;20.17;;;;;;;;;;6206027;23;20020;-68
2022/06/07 11:49:17;;;;;;;21.25;17.88;;;;;;;;;;6203004;23;20025;-67
2022/06/07 11:51:55;;;;;;;21.50;17.77;;;;;;;;;;6210809;23;20079;-69
2022/06/07 11:54:26;;;;;;;17.23;15.43;;;;;;;;;;6202920;23;20518;-69
2022/06/07 11:56:53;;;;;;;19.83;16.88;;;;;;;;;;6205570;23;20819;-68
2022/06/07 11:59:20;;;;;;;20.97;18.63;;;;;;;;;;6195927;23;20024;-68
2022/06/07 12:01:48;;;;;;;18.52;16.00;;;;;;;;;;6210777;23;20021;-68
2022/06/07 12:04:28;;;;;;;20.13;18.07;;;;;;;;;;6203477;23;20104;-68
2022/06/07 12:06:58;;;;;;;21.27;16.40;;;;;;;;;;6211240;23;20293;-68
2022/06/07 12:09:26;;;;;;;18.58;15.82;;;;;;;;;;6210295;23;20016;-68
2022/06/07 12:11:52;;;;;;;17.05;14.98;;;;;;;;;;6197658;23;20079;-68
2022/06/07 12:14:35;;;;;;;18.98;15.30;;;;;;;;;;6206272;23;20157;-69
2022/06/07 12:17:03;;;;;;;17.02;13.77;;;;;;;;;;6203248;23;20020;-68
2022/06/07 12:19:35;;;;;;;18.70;14.15;;;;;;;;;;6184032;23;20178;-68
2022/06/07 12:22:04;;;;;;;18.35;13.57;;;;;;;;;;6204374;23;20035;-68
2022/06/07 12:24:38;;;;;;;19.15;14.02;;;;;;;;;;6208382;23;20027;-67
2022/06/07 12:27:31;;;;;;;15.55;12.23;;;;;;;;;;6200131;23;20486;-68
2022/06/07 12:30:00;;;;;;;18.67;14.20;;;;;;;;;;6205358;23;20020;-68
2022/06/07 12:32:34;;;;;;;17.80;14.77;;;;;;;;;;6212416;23;20449;-68
2022/06/07 12:35:04;;;;;;;22.25;16.83;;;;;;;;;;6203276;23;20406;-68
2022/06/07 12:37:31;;;;;;;16.73;14.38;;;;;;;;;;6211208;23;20036;-68
2022/06/07 12:39:58;;;;;;;18.58;14.57;;;;;;;;;;6198973;23;20091;-68
2022/06/07 12:42:27;;;;;;;21.70;14.70;;;;;;;;;;6195699;23;20024;-68
2022/06/07 12:44:54;;;;;;;16.40;14.35;;;;;;;;;;6197575;23;20060;-68
2022/06/07 12:47:21;;;;;;;19.00;13.97;;;;;;;;;;6202524;23;20605;-68
2022/06/07 12:49:48;;;;;;;18.95;13.18;;;;;;;;;;6199460;23;20345;-68
2022/06/07 12:52:16;;;;;;;16.45;12.20;;;;;;;;;;6200238;23;20031;-68
2022/06/07 12:54:46;;;;;;;13.88;11.50;;;;;;;;;;6191003;23;20674;-68
2022/06/07 12:57:15;;;;;;;15.15;12.23;;;;;;;;;;6194408;23;20747;-68
2022/06/07 12:59:55;;;;;;;16.95;12.55;;;;;;;;;;6204006;23;20064;-68
2022/06/07 13:02:24;;;;;;;16.65;13.35;;;;;;;;;;6193656;23;20131;-68
2022/06/07 13:04:54;;;;;;;13.98;11.77;;;;;;;;;;6203422;23;20112;-68
2022/06/07 13:07:25;;;;;;;14.98;10.23;;;;;;;;;;6185044;23;20474;-68
2022/06/07 13:10:10;;;;;;;14.65;10.07;;;;;;;;;;6197856;23;20070;-68
2022/06/07 13:12:42;;;;;;;14.25;11.23;;;;;;;;;;6194060;23;20133;-68
2022/06/07 13:15:29;;;;;;;12.93;9.80;;;;;;;;;;6200772;23;20025;-68
2022/06/07 13:18:04;;;;;;;12.63;10.73;;;;;;;;;;6202502;23;20055;-68
2022/06/07 13:20:35;;;;;;;15.98;10.80;;;;;;;;;;6190905;23;20028;-67
2022/06/07 13:23:11;;;;;;;13.05;11.27;;;;;;;;;;6196750;23;20583;-67
2022/06/07 13:25:37;;;;;;;13.75;11.15;;;;;;;;;;6195014;23;20063;-68
2022/06/07 13:28:14;;;;;;;15.50;11.63;;;;;;;;;;6202878;23;20446;-68
2022/06/07 13:30:41;;;;;;;16.85;11.80;;;;;;;;;;6193442;22;20095;-68
2022/06/07 13:33:12;;;;;;;14.80;11.05;;;;;;;;;;6204033;23;20025;-68
2022/06/07 13:35:43;;;;;;;13.38;10.82;;;;;;;;;;6188964;23;20063;-68
2022/06/07 13:38:21;;;;;;;12.60;10.20;;;;;;;;;;6172650;23;20054;-68
2022/06/07 13:40:58;;;;;;;14.10;10.60;;;;;;;;;;6205105;23;20422;-68
2022/06/07 13:43:24;;;;;;;11.25;10.05;;;;;;;;;;6202137;23;20492;-68
2022/06/07 13:45:52;;;;;;;12.50;9.75;;;;;;;;;;6204255;23;20079;-67
2022/06/07 13:48:23;;;;;;;14.45;10.80;;;;;;;;;;6188741;23;20025;-67
2022/06/07 13:53:43;;;;;;;12.38;9.65;;;;;;;;;;6195719;23;20309;-67
2022/06/07 13:56:14;;;;;;;14.48;9.68;;;;;;;;;;6204451;23;20450;-68
2022/06/07 13:58:42;;;;;;;11.82;9.50;;;;;;;;;;6193735;23;20095;-67
2022/06/07 14:01:19;;;;;;;13.13;10.77;;;;;;;;;;6203940;23;20024;-67
2022/06/07 14:03:47;;;;;;;11.88;9.68;;;;;;;;;;6193682;23;20107;-68
2022/06/07 14:06:19;;;;;;;13.98;9.80;;;;;;;;;;6200106;23;20028;-68
2022/06/07 14:08:47;;;;;;;12.52;10.55;;;;;;;;;;6204514;23;20031;-68
2022/06/07 14:11:13;;;;;;;13.68;9.98;;;;;;;;;;6194460;23;20051;-68
2022/06/07 14:13:39;;;;;;;9.77;8.77;;;;;;;;;;6205272;23;20103;-68
2022/06/07 14:16:09;;;;;;;12.70;9.50;;;;;;;;;;6193840;22;20330;-67
2022/06/07 14:18:35;;;;;;;10.90;9.07;;;;;;;;;;6197317;23;20353;-67
2022/06/07 14:21:01;;;;;;;13.10;10.57;;;;;;;;;;6173503;23;20020;-69
2022/06/07 14:23:28;;;;;;;12.15;9.23;;;;;;;;;;6199373;23;20020;-69
2022/06/07 14:25:54;;;;;;;12.25;10.02;;;;;;;;;;6204166;23;20265;-69
2022/06/07 14:28:22;;;;;;;10.70;8.52;;;;;;;;;;6190220;22;20487;-69
2022/06/07 14:30:55;;;;;;;9.75;8.75;;;;;;;;;;6195464;23;20354;-68
2022/06/07 14:33:23;;;;;;;9.77;8.68;;;;;;;;;;6185248;23;20230;-68
2022/06/07 14:35:50;;;;;;;9.80;7.75;;;;;;;;;;6200842;23;20020;-68
2022/06/07 14:38:17;;;;;;;11.18;7.97;;;;;;;;;;6190972;23;20020;-68
2022/06/07 14:40:44;;;;;;;;;;;;;;;;;;6199343;23;20070;-68
2022/06/07 14:43:12;;;;;;;10.95;8.70;;;;;;;;;;6201416;23;20437;-68
2022/06/07 14:45:43;;;;;;;10.45;8.75;;;;;;;;;;6185222;23;20224;-67
2022/06/07 14:48:18;;;;;;;11.90;8.85;;;;;;;;;;6198166;23;20028;-68
2022/06/07 14:50:45;;;;;;;12.32;9.88;;;;;;;;;;6191184;23;20111;-68
2022/06/07 14:53:11;;;;;;;11.98;8.60;;;;;;;;;;6200991;23;20032;-67
2022/06/07 14:55:37;;;;;;;10.15;7.90;;;;;;;;;;6195765;23;20031;-67
2022/06/07 14:58:04;;;;;;;11.20;8.80;;;;;;;;;;6195955;23;20488;-67